sensor_id;sensor_type;location;lat;lon;timestamp;temperature;humidity
58865;DHT22;45702;52.982;6.658;2023-08-17T00:00:00;16.00;99.90
58865;DHT22;45702;52.982;6.658;2023-08-17T00:02:26;16.50;99.90
58865;DHT22;45702;52.982;6.658;2023-08-17T00:04:52;16.00;99.90
58865;DHT22;45702;52.982;6.658;2023-08-17T00:07:18;16.00;99.90
58865;DHT22;45702;52.982;6.658;2023-08-17T00:09:43;16.00;99.90
58865;DHT22;45702;52.982;6.658;2023-08-17T00:12:09;16.00;99.90
58865;DHT22;45702;52.982;6.658;2023-08-17T00:14:35;16.00;99.90
58865;DHT22;45702;52.982;6.658;2023-08-17T00:17:00;16.00;99.90
58865;DHT22;45702;52.982;6.658;2023-08-17T00:19:28;16.00;99.90
58865;DHT22;45702;52.982;6.658;2023-08-17T00:21:54;16.00;99.90
58865;DHT22;45702;52.982;6.658;2023-08-17T00:24:20;16.00;99.90
58865;DHT22;45702;52.982;6.658;2023-08-17T00:26:46;16.10;99.90
58865;DHT22;45702;52.982;6.658;2023-08-17T00:29:12;16.10;99.90
58865;DHT22;45702;52.982;6.658;2023-08-17T00:31:40;16.10;99.90
58865;DHT22;45702;52.982;6.658;2023-08-17T00:34:06;16.00;99.90
58865;DHT22;45702;52.982;6.658;2023-08-17T00:36:32;16.10;99.90
58865;DHT22;45702;52.982;6.658;2023-08-17T00:38:57;16.10;99.90
58865;DHT22;45702;52.982;6.658;2023-08-17T00:41:23;16.10;99.90
58865;DHT22;45702;52.982;6.658;2023-08-17T00:43:49;16.00;99.90
58865;DHT22;45702;52.982;6.658;2023-08-17T00:46:15;16.00;99.90
58865;DHT22;45702;52.982;6.658;2023-08-17T00:48:41;16.10;99.90
58865;DHT22;45702;52.982;6.658;2023-08-17T00:51:08;16.00;99.90
58865;DHT22;45702;52.982;6.658;2023-08-17T00:53:34;16.00;99.90
58865;DHT22;45702;52.982;6.658;2023-08-17T00:56:01;16.10;99.90
58865;DHT22;45702;52.982;6.658;2023-08-17T00:58:28;16.10;99.90
58865;DHT22;45702;52.982;6.658;2023-08-17T01:00:54;16.00;99.90
58865;DHT22;45702;52.982;6.658;2023-08-17T01:03:20;16.00;99.90
58865;DHT22;45702;52.982;6.658;2023-08-17T01:05:47;16.00;99.90
58865;DHT22;45702;52.982;6.658;2023-08-17T01:08:13;16.00;99.90
58865;DHT22;45702;52.982;6.658;2023-08-17T01:16:51;16.00;99.90
58865;DHT22;45702;52.982;6.658;2023-08-17T01:19:26;15.90;99.90
58865;DHT22;45702;52.982;6.658;2023-08-17T01:21:57;16.00;99.90
58865;DHT22;45702;52.982;6.658;2023-08-17T01:24:23;15.90;99.90
58865;DHT22;45702;52.982;6.658;2023-08-17T01:26:49;15.90;99.90
58865;DHT22;45702;52.982;6.658;2023-08-17T01:29:15;15.90;99.90
58865;DHT22;45702;52.982;6.658;2023-08-17T01:34:33;15.80;99.90
58865;DHT22;45702;52.982;6.658;2023-08-17T01:37:01;15.70;99.90
58865;DHT22;45702;52.982;6.658;2023-08-17T01:39:35;15.90;99.90
58865;DHT22;45702;52.982;6.658;2023-08-17T01:42:02;15.80;99.90
58865;DHT22;45702;52.982;6.658;2023-08-17T01:44:29;15.70;99.90
58865;DHT22;45702;52.982;6.658;2023-08-17T01:46:55;15.70;99.90
58865;DHT22;45702;52.982;6.658;2023-08-17T01:49:21;15.70;99.90
58865;DHT22;45702;52.982;6.658;2023-08-17T01:51:47;15.70;99.90
58865;DHT22;45702;52.982;6.658;2023-08-17T01:54:12;15.60;99.90
58865;DHT22;45702;52.982;6.658;2023-08-17T01:56:38;15.60;99.90
58865;DHT22;45702;52.982;6.658;2023-08-17T01:59:04;15.70;99.90
58865;DHT22;45702;52.982;6.658;2023-08-17T02:01:29;15.60;99.90
58865;DHT22;45702;52.982;6.658;2023-08-17T02:03:55;15.60;99.90
58865;DHT22;45702;52.982;6.658;2023-08-17T02:06:21;15.60;99.90
58865;DHT22;45702;52.982;6.658;2023-08-17T02:08:46;15.60;99.90
58865;DHT22;45702;52.982;6.658;2023-08-17T02:11:12;15.60;99.90
58865;DHT22;45702;52.982;6.658;2023-08-17T02:13:38;15.60;99.90
58865;DHT22;45702;52.982;6.658;2023-08-17T02:16:04;15.60;99.90
58865;DHT22;45702;52.982;6.658;2023-08-17T02:18:30;15.60;99.90
58865;DHT22;45702;52.982;6.658;2023-08-17T02:20:59;15.50;99.90
58865;DHT22;45702;52.982;6.658;2023-08-17T02:23:24;15.70;99.90
58865;DHT22;45702;52.982;6.658;2023-08-17T02:25:50;15.50;99.90
58865;DHT22;45702;52.982;6.658;2023-08-17T02:28:16;15.50;99.90
58865;DHT22;45702;52.982;6.658;2023-08-17T02:30:42;15.60;99.90
58865;DHT22;45702;52.982;6.658;2023-08-17T02:33:08;15.50;99.90
58865;DHT22;45702;52.982;6.658;2023-08-17T02:35:34;15.60;99.90
58865;DHT22;45702;52.982;6.658;2023-08-17T02:38:00;15.60;99.90
58865;DHT22;45702;52.982;6.658;2023-08-17T02:40:25;15.50;99.90
58865;DHT22;45702;52.982;6.658;2023-08-17T02:42:51;15.60;99.90
58865;DHT22;45702;52.982;6.658;2023-08-17T02:45:18;15.50;99.90
58865;DHT22;45702;52.982;6.658;2023-08-17T02:47:44;15.60;99.90
58865;DHT22;45702;52.982;6.658;2023-08-17T02:50:10;15.50;99.90
58865;DHT22;45702;52.982;6.658;2023-08-17T02:52:35;15.60;99.90
58865;DHT22;45702;52.982;6.658;2023-08-17T02:55:01;15.50;99.90
58865;DHT22;45702;52.982;6.658;2023-08-17T02:57:27;15.60;99.90
58865;DHT22;45702;52.982;6.658;2023-08-17T02:59:52;15.60;99.90
58865;DHT22;45702;52.982;6.658;2023-08-17T03:02:18;15.50;99.90
58865;DHT22;45702;52.982;6.658;2023-08-17T03:04:44;15.50;99.90
58865;DHT22;45702;52.982;6.658;2023-08-17T03:07:09;15.50;99.90
58865;DHT22;45702;52.982;6.658;2023-08-17T03:09:35;15.60;99.90
58865;DHT22;45702;52.982;6.658;2023-08-17T03:12:01;15.50;99.90
58865;DHT22;45702;52.982;6.658;2023-08-17T03:14:26;15.50;99.90
58865;DHT22;45702;52.982;6.658;2023-08-17T03:16:52;15.50;99.90
58865;DHT22;45702;52.982;6.658;2023-08-17T03:19:18;15.50;99.90
58865;DHT22;45702;52.982;6.658;2023-08-17T03:21:44;15.60;99.90
58865;DHT22;45702;52.982;6.658;2023-08-17T03:24:10;15.50;99.90
58865;DHT22;45702;52.982;6.658;2023-08-17T03:26:35;15.50;99.90
58865;DHT22;45702;52.982;6.658;2023-08-17T03:29:01;15.50;99.90
58865;DHT22;45702;52.982;6.658;2023-08-17T03:31:27;15.50;99.90
58865;DHT22;45702;52.982;6.658;2023-08-17T03:33:53;15.40;99.90
58865;DHT22;45702;52.982;6.658;2023-08-17T03:36:20;15.40;99.90
58865;DHT22;45702;52.982;6.658;2023-08-17T03:38:46;15.40;99.90
58865;DHT22;45702;52.982;6.658;2023-08-17T03:41:12;15.40;99.90
58865;DHT22;45702;52.982;6.658;2023-08-17T03:43:37;15.30;99.90
58865;DHT22;45702;52.982;6.658;2023-08-17T03:46:04;15.30;99.90
58865;DHT22;45702;52.982;6.658;2023-08-17T03:48:30;15.30;99.90
58865;DHT22;45702;52.982;6.658;2023-08-17T03:50:55;15.30;99.90
58865;DHT22;45702;52.982;6.658;2023-08-17T03:53:21;15.30;99.90
58865;DHT22;45702;52.982;6.658;2023-08-17T03:55:50;15.50;99.90
58865;DHT22;45702;52.982;6.658;2023-08-17T03:58:18;15.30;99.90
58865;DHT22;45702;52.982;6.658;2023-08-17T04:00:51;15.50;99.90
58865;DHT22;45702;52.982;6.658;2023-08-17T04:03:17;15.40;99.90
58865;DHT22;45702;52.982;6.658;2023-08-17T04:05:43;15.40;99.90
58865;DHT22;45702;52.982;6.658;2023-08-17T04:08:08;15.40;99.90
58865;DHT22;45702;52.982;6.658;2023-08-17T04:10:34;15.40;99.90
58865;DHT22;45702;52.982;6.658;2023-08-17T04:13:00;15.50;99.90
58865;DHT22;45702;52.982;6.658;2023-08-17T04:15:26;15.50;99.90
58865;DHT22;45702;52.982;6.658;2023-08-17T04:17:51;15.50;99.90
58865;DHT22;45702;52.982;6.658;2023-08-17T04:20:17;15.50;99.90
58865;DHT22;45702;52.982;6.658;2023-08-17T04:22:44;15.50;99.90
58865;DHT22;45702;52.982;6.658;2023-08-17T04:25:10;15.50;99.90
58865;DHT22;45702;52.982;6.658;2023-08-17T04:27:36;15.50;99.90
58865;DHT22;45702;52.982;6.658;2023-08-17T04:30:02;15.70;99.90
58865;DHT22;45702;52.982;6.658;2023-08-17T04:32:28;15.60;99.90
58865;DHT22;45702;52.982;6.658;2023-08-17T04:34:54;15.60;99.90
58865;DHT22;45702;52.982;6.658;2023-08-17T04:37:19;15.60;99.90
58865;DHT22;45702;52.982;6.658;2023-08-17T04:39:45;15.50;99.90
58865;DHT22;45702;52.982;6.658;2023-08-17T04:42:13;15.50;99.90
58865;DHT22;45702;52.982;6.658;2023-08-17T04:44:39;15.50;99.90
58865;DHT22;45702;52.982;6.658;2023-08-17T04:47:05;15.50;99.90
58865;DHT22;45702;52.982;6.658;2023-08-17T04:49:31;15.60;99.90
58865;DHT22;45702;52.982;6.658;2023-08-17T04:51:57;15.50;99.90
58865;DHT22;45702;52.982;6.658;2023-08-17T04:54:22;15.60;99.90
58865;DHT22;45702;52.982;6.658;2023-08-17T04:56:48;15.60;99.90
58865;DHT22;45702;52.982;6.658;2023-08-17T04:59:14;15.60;99.90
58865;DHT22;45702;52.982;6.658;2023-08-17T05:01:39;15.60;99.90
58865;DHT22;45702;52.982;6.658;2023-08-17T05:04:05;15.60;99.90
58865;DHT22;45702;52.982;6.658;2023-08-17T05:06:31;15.60;99.90
58865;DHT22;45702;52.982;6.658;2023-08-17T05:08:57;15.60;99.90
58865;DHT22;45702;52.982;6.658;2023-08-17T05:11:23;15.60;99.90
58865;DHT22;45702;52.982;6.658;2023-08-17T05:13:49;15.70;99.90
58865;DHT22;45702;52.982;6.658;2023-08-17T05:16:15;15.70;99.90
58865;DHT22;45702;52.982;6.658;2023-08-17T05:18:40;15.70;99.90
58865;DHT22;45702;52.982;6.658;2023-08-17T05:21:06;15.70;99.90
58865;DHT22;45702;52.982;6.658;2023-08-17T05:23:32;15.80;99.90
58865;DHT22;45702;52.982;6.658;2023-08-17T05:25:58;15.70;99.90
58865;DHT22;45702;52.982;6.658;2023-08-17T05:28:24;15.70;99.90
58865;DHT22;45702;52.982;6.658;2023-08-17T05:30:50;15.80;99.90
58865;DHT22;45702;52.982;6.658;2023-08-17T05:33:16;15.80;99.90
58865;DHT22;45702;52.982;6.658;2023-08-17T05:35:42;15.80;99.90
58865;DHT22;45702;52.982;6.658;2023-08-17T05:38:08;15.90;99.90
58865;DHT22;45702;52.982;6.658;2023-08-17T05:40:35;15.90;99.90
58865;DHT22;45702;52.982;6.658;2023-08-17T05:43:01;15.90;99.90
58865;DHT22;45702;52.982;6.658;2023-08-17T05:45:27;15.90;99.90
58865;DHT22;45702;52.982;6.658;2023-08-17T05:47:52;16.00;99.90
58865;DHT22;45702;52.982;6.658;2023-08-17T05:50:18;16.00;99.90
58865;DHT22;45702;52.982;6.658;2023-08-17T05:52:44;16.00;99.90
58865;DHT22;45702;52.982;6.658;2023-08-17T05:55:10;16.00;99.90
58865;DHT22;45702;52.982;6.658;2023-08-17T05:57:35;16.00;99.90
58865;DHT22;45702;52.982;6.658;2023-08-17T06:00:01;16.10;99.90
58865;DHT22;45702;52.982;6.658;2023-08-17T06:02:28;16.10;99.90
58865;DHT22;45702;52.982;6.658;2023-08-17T06:04:53;16.10;99.90
58865;DHT22;45702;52.982;6.658;2023-08-17T06:07:19;16.20;99.90
58865;DHT22;45702;52.982;6.658;2023-08-17T06:09:45;16.20;99.90
58865;DHT22;45702;52.982;6.658;2023-08-17T06:12:10;16.20;99.90
58865;DHT22;45702;52.982;6.658;2023-08-17T06:14:36;16.30;99.90
58865;DHT22;45702;52.982;6.658;2023-08-17T06:17:02;16.30;99.90
58865;DHT22;45702;52.982;6.658;2023-08-17T06:19:28;16.30;99.90
58865;DHT22;45702;52.982;6.658;2023-08-17T06:21:54;16.40;99.90
58865;DHT22;45702;52.982;6.658;2023-08-17T06:24:19;16.40;99.90
58865;DHT22;45702;52.982;6.658;2023-08-17T06:26:45;16.40;99.90
58865;DHT22;45702;52.982;6.658;2023-08-17T06:29:11;16.40;99.90
58865;DHT22;45702;52.982;6.658;2023-08-17T06:31:37;16.40;99.90
58865;DHT22;45702;52.982;6.658;2023-08-17T06:34:03;16.50;99.90
58865;DHT22;45702;52.982;6.658;2023-08-17T06:36:32;16.50;99.90
58865;DHT22;45702;52.982;6.658;2023-08-17T06:38:59;16.50;99.90
58865;DHT22;45702;52.982;6.658;2023-08-17T06:41:25;16.60;99.90
58865;DHT22;45702;52.982;6.658;2023-08-17T06:43:51;16.60;99.90
58865;DHT22;45702;52.982;6.658;2023-08-17T06:46:17;16.60;99.90
58865;DHT22;45702;52.982;6.658;2023-08-17T06:48:43;16.60;99.90
58865;DHT22;45702;52.982;6.658;2023-08-17T06:51:09;16.70;99.90
58865;DHT22;45702;52.982;6.658;2023-08-17T06:53:35;16.80;99.90
58865;DHT22;45702;52.982;6.658;2023-08-17T06:56:00;16.80;99.90
58865;DHT22;45702;52.982;6.658;2023-08-17T06:58:26;16.80;99.90
58865;DHT22;45702;52.982;6.658;2023-08-17T07:00:52;16.90;99.90
58865;DHT22;45702;52.982;6.658;2023-08-17T07:03:18;16.90;99.90
58865;DHT22;45702;52.982;6.658;2023-08-17T07:05:44;16.90;99.90
58865;DHT22;45702;52.982;6.658;2023-08-17T07:08:09;17.00;99.90
58865;DHT22;45702;52.982;6.658;2023-08-17T07:10:35;17.00;99.90
58865;DHT22;45702;52.982;6.658;2023-08-17T07:13:01;17.10;99.90
58865;DHT22;45702;52.982;6.658;2023-08-17T07:15:30;17.10;99.90
58865;DHT22;45702;52.982;6.658;2023-08-17T07:17:56;17.10;99.90
58865;DHT22;45702;52.982;6.658;2023-08-17T07:20:22;17.10;99.90
58865;DHT22;45702;52.982;6.658;2023-08-17T07:22:48;17.20;99.90
58865;DHT22;45702;52.982;6.658;2023-08-17T07:25:14;17.20;99.90
58865;DHT22;45702;52.982;6.658;2023-08-17T07:27:40;17.30;99.90
58865;DHT22;45702;52.982;6.658;2023-08-17T07:30:06;17.30;99.90
58865;DHT22;45702;52.982;6.658;2023-08-17T07:32:33;17.40;99.90
58865;DHT22;45702;52.982;6.658;2023-08-17T07:34:59;17.50;99.90
58865;DHT22;45702;52.982;6.658;2023-08-17T07:37:25;17.50;99.90
58865;DHT22;45702;52.982;6.658;2023-08-17T07:39:57;17.50;99.90
58865;DHT22;45702;52.982;6.658;2023-08-17T07:42:23;17.50;99.90
58865;DHT22;45702;52.982;6.658;2023-08-17T07:44:49;17.60;99.90
58865;DHT22;45702;52.982;6.658;2023-08-17T07:47:14;17.60;99.90
58865;DHT22;45702;52.982;6.658;2023-08-17T07:49:40;17.70;99.90
58865;DHT22;45702;52.982;6.658;2023-08-17T07:52:06;17.70;99.90
58865;DHT22;45702;52.982;6.658;2023-08-17T07:54:31;17.70;99.90
58865;DHT22;45702;52.982;6.658;2023-08-17T07:56:57;17.70;99.90
58865;DHT22;45702;52.982;6.658;2023-08-17T07:59:23;17.70;99.90
58865;DHT22;45702;52.982;6.658;2023-08-17T08:01:49;17.70;99.90
58865;DHT22;45702;52.982;6.658;2023-08-17T08:04:15;17.70;99.90
58865;DHT22;45702;52.982;6.658;2023-08-17T08:06:41;17.80;99.90
58865;DHT22;45702;52.982;6.658;2023-08-17T08:09:07;17.80;99.90
58865;DHT22;45702;52.982;6.658;2023-08-17T08:11:33;17.80;99.90
58865;DHT22;45702;52.982;6.658;2023-08-17T08:13:59;17.90;99.90
58865;DHT22;45702;52.982;6.658;2023-08-17T08:16:24;17.90;99.90
58865;DHT22;45702;52.982;6.658;2023-08-17T08:18:50;18.00;99.90
58865;DHT22;45702;52.982;6.658;2023-08-17T08:21:16;18.20;99.90
58865;DHT22;45702;52.982;6.658;2023-08-17T08:23:42;18.20;99.90
58865;DHT22;45702;52.982;6.658;2023-08-17T08:26:07;18.30;99.90
58865;DHT22;45702;52.982;6.658;2023-08-17T08:28:33;18.40;99.90
58865;DHT22;45702;52.982;6.658;2023-08-17T08:31:02;18.50;99.90
58865;DHT22;45702;52.982;6.658;2023-08-17T08:33:31;18.50;99.90
58865;DHT22;45702;52.982;6.658;2023-08-17T08:35:57;18.50;99.90
58865;DHT22;45702;52.982;6.658;2023-08-17T08:38:23;18.40;99.90
58865;DHT22;45702;52.982;6.658;2023-08-17T08:40:49;18.30;99.90
58865;DHT22;45702;52.982;6.658;2023-08-17T08:43:15;18.30;99.90
58865;DHT22;45702;52.982;6.658;2023-08-17T08:45:44;18.30;99.90
58865;DHT22;45702;52.982;6.658;2023-08-17T08:48:14;18.30;99.90
58865;DHT22;45702;52.982;6.658;2023-08-17T08:50:41;18.30;99.90
58865;DHT22;45702;52.982;6.658;2023-08-17T08:53:17;18.30;99.90
58865;DHT22;45702;52.982;6.658;2023-08-17T08:55:59;18.30;99.90
58865;DHT22;45702;52.982;6.658;2023-08-17T08:58:25;18.30;99.90
58865;DHT22;45702;52.982;6.658;2023-08-17T09:00:52;18.30;99.90
58865;DHT22;45702;52.982;6.658;2023-08-17T09:03:19;18.40;99.90
58865;DHT22;45702;52.982;6.658;2023-08-17T09:05:47;18.40;99.90
58865;DHT22;45702;52.982;6.658;2023-08-17T09:08:15;18.30;99.90
58865;DHT22;45702;52.982;6.658;2023-08-17T09:10:41;18.40;99.90
58865;DHT22;45702;52.982;6.658;2023-08-17T09:13:07;18.40;99.90
58865;DHT22;45702;52.982;6.658;2023-08-17T09:15:34;18.50;99.90
58865;DHT22;45702;52.982;6.658;2023-08-17T09:18:00;18.60;99.90
58865;DHT22;45702;52.982;6.658;2023-08-17T09:20:46;18.70;99.90
58865;DHT22;45702;52.982;6.658;2023-08-17T09:23:13;18.80;99.90
58865;DHT22;45702;52.982;6.658;2023-08-17T09:25:44;18.80;99.90
58865;DHT22;45702;52.982;6.658;2023-08-17T09:28:12;18.80;99.90
58865;DHT22;45702;52.982;6.658;2023-08-17T09:30:50;18.80;99.90
58865;DHT22;45702;52.982;6.658;2023-08-17T09:33:18;18.80;99.90
58865;DHT22;45702;52.982;6.658;2023-08-17T09:35:44;18.90;99.90
58865;DHT22;45702;52.982;6.658;2023-08-17T09:38:09;19.00;99.90
58865;DHT22;45702;52.982;6.658;2023-08-17T09:40:35;19.10;99.90
58865;DHT22;45702;52.982;6.658;2023-08-17T09:43:02;19.20;99.90
58865;DHT22;45702;52.982;6.658;2023-08-17T09:45:28;19.30;99.90
58865;DHT22;45702;52.982;6.658;2023-08-17T09:47:54;19.30;99.90
58865;DHT22;45702;52.982;6.658;2023-08-17T09:50:23;19.30;99.90
58865;DHT22;45702;52.982;6.658;2023-08-17T09:52:53;19.30;99.90
58865;DHT22;45702;52.982;6.658;2023-08-17T09:55:23;19.30;99.90
58865;DHT22;45702;52.982;6.658;2023-08-17T09:57:50;19.30;99.90
58865;DHT22;45702;52.982;6.658;2023-08-17T10:00:19;19.30;99.90
58865;DHT22;45702;52.982;6.658;2023-08-17T10:02:45;19.30;99.90
58865;DHT22;45702;52.982;6.658;2023-08-17T10:05:12;19.40;99.90
58865;DHT22;45702;52.982;6.658;2023-08-17T10:07:41;19.50;99.90
58865;DHT22;45702;52.982;6.658;2023-08-17T10:10:09;19.70;99.90
58865;DHT22;45702;52.982;6.658;2023-08-17T10:12:51;19.80;99.90
58865;DHT22;45702;52.982;6.658;2023-08-17T10:15:19;19.90;99.90
58865;DHT22;45702;52.982;6.658;2023-08-17T10:17:55;20.00;99.90
58865;DHT22;45702;52.982;6.658;2023-08-17T10:20:26;20.00;99.90
58865;DHT22;45702;52.982;6.658;2023-08-17T10:22:56;20.10;99.90
58865;DHT22;45702;52.982;6.658;2023-08-17T10:25:26;20.10;99.90
58865;DHT22;45702;52.982;6.658;2023-08-17T10:27:54;20.20;99.90
58865;DHT22;45702;52.982;6.658;2023-08-17T10:30:20;20.20;99.90
58865;DHT22;45702;52.982;6.658;2023-08-17T10:32:45;20.20;99.90
58865;DHT22;45702;52.982;6.658;2023-08-17T10:35:13;20.20;99.90
58865;DHT22;45702;52.982;6.658;2023-08-17T10:37:39;20.20;99.90
58865;DHT22;45702;52.982;6.658;2023-08-17T10:40:06;20.20;99.90
58865;DHT22;45702;52.982;6.658;2023-08-17T10:42:36;20.10;99.90
58865;DHT22;45702;52.982;6.658;2023-08-17T10:50:31;20.10;99.90
58865;DHT22;45702;52.982;6.658;2023-08-17T10:53:00;20.10;99.90
58865;DHT22;45702;52.982;6.658;2023-08-17T10:55:48;20.30;99.90
58865;DHT22;45702;52.982;6.658;2023-08-17T10:58:16;20.40;99.90
58865;DHT22;45702;52.982;6.658;2023-08-17T11:00:42;20.50;99.90
58865;DHT22;45702;52.982;6.658;2023-08-17T11:03:17;20.50;99.90
58865;DHT22;45702;52.982;6.658;2023-08-17T11:08:29;20.40;99.90
58865;DHT22;45702;52.982;6.658;2023-08-17T11:11:04;20.30;99.90
58865;DHT22;45702;52.982;6.658;2023-08-17T11:13:36;20.30;99.90
58865;DHT22;45702;52.982;6.658;2023-08-17T11:16:02;20.20;99.90
58865;DHT22;45702;52.982;6.658;2023-08-17T11:18:28;20.20;99.90
58865;DHT22;45702;52.982;6.658;2023-08-17T11:20:55;20.20;99.90
58865;DHT22;45702;52.982;6.658;2023-08-17T11:23:21;20.20;99.90
58865;DHT22;45702;52.982;6.658;2023-08-17T11:25:48;20.20;99.90
58865;DHT22;45702;52.982;6.658;2023-08-17T11:28:13;20.20;99.90
58865;DHT22;45702;52.982;6.658;2023-08-17T11:30:40;20.20;99.90
58865;DHT22;45702;52.982;6.658;2023-08-17T11:33:07;20.30;99.90
58865;DHT22;45702;52.982;6.658;2023-08-17T11:35:34;20.30;99.90
58865;DHT22;45702;52.982;6.658;2023-08-17T11:38:00;20.30;99.90
58865;DHT22;45702;52.982;6.658;2023-08-17T11:40:26;20.30;99.90
58865;DHT22;45702;52.982;6.658;2023-08-17T11:42:52;20.40;99.90
58865;DHT22;45702;52.982;6.658;2023-08-17T11:45:19;20.40;99.90
58865;DHT22;45702;52.982;6.658;2023-08-17T11:47:47;20.50;99.90
58865;DHT22;45702;52.982;6.658;2023-08-17T11:50:13;20.60;99.90
58865;DHT22;45702;52.982;6.658;2023-08-17T11:52:40;20.60;99.90
58865;DHT22;45702;52.982;6.658;2023-08-17T11:55:07;20.70;99.90
58865;DHT22;45702;52.982;6.658;2023-08-17T11:57:34;20.80;99.90
58865;DHT22;45702;52.982;6.658;2023-08-17T12:00:00;20.80;99.90
58865;DHT22;45702;52.982;6.658;2023-08-17T12:02:27;20.80;99.90
58865;DHT22;45702;52.982;6.658;2023-08-17T12:04:55;20.70;99.90
58865;DHT22;45702;52.982;6.658;2023-08-17T12:07:23;20.70;99.90
58865;DHT22;45702;52.982;6.658;2023-08-17T12:09:49;20.70;99.90
58865;DHT22;45702;52.982;6.658;2023-08-17T12:12:19;20.70;99.90
58865;DHT22;45702;52.982;6.658;2023-08-17T12:14:47;20.70;99.90
58865;DHT22;45702;52.982;6.658;2023-08-17T12:17:17;20.70;99.90
58865;DHT22;45702;52.982;6.658;2023-08-17T12:19:44;20.80;99.90
58865;DHT22;45702;52.982;6.658;2023-08-17T12:22:12;20.90;99.90
58865;DHT22;45702;52.982;6.658;2023-08-17T12:24:38;21.00;99.90
58865;DHT22;45702;52.982;6.658;2023-08-17T12:27:05;21.10;99.90
58865;DHT22;45702;52.982;6.658;2023-08-17T12:29:31;21.10;99.90
58865;DHT22;45702;52.982;6.658;2023-08-17T12:31:58;21.20;99.90
58865;DHT22;45702;52.982;6.658;2023-08-17T12:34:24;21.20;99.90
58865;DHT22;45702;52.982;6.658;2023-08-17T12:36:50;21.20;99.90
58865;DHT22;45702;52.982;6.658;2023-08-17T12:39:16;21.10;99.90
58865;DHT22;45702;52.982;6.658;2023-08-17T12:41:42;21.10;99.90
58865;DHT22;45702;52.982;6.658;2023-08-17T12:44:11;21.00;99.90
58865;DHT22;45702;52.982;6.658;2023-08-17T12:46:42;20.90;99.90
58865;DHT22;45702;52.982;6.658;2023-08-17T12:49:08;20.80;99.90
58865;DHT22;45702;52.982;6.658;2023-08-17T12:51:34;20.70;99.90
58865;DHT22;45702;52.982;6.658;2023-08-17T12:53:59;20.70;99.90
58865;DHT22;45702;52.982;6.658;2023-08-17T12:56:25;20.70;99.90
58865;DHT22;45702;52.982;6.658;2023-08-17T12:58:51;20.60;99.90
58865;DHT22;45702;52.982;6.658;2023-08-17T13:01:16;20.60;99.90
58865;DHT22;45702;52.982;6.658;2023-08-17T13:03:44;20.60;99.90
58865;DHT22;45702;52.982;6.658;2023-08-17T13:06:09;20.50;99.90
58865;DHT22;45702;52.982;6.658;2023-08-17T13:08:35;20.50;99.90
58865;DHT22;45702;52.982;6.658;2023-08-17T13:11:01;20.50;99.90
58865;DHT22;45702;52.982;6.658;2023-08-17T13:13:27;20.50;99.90
58865;DHT22;45702;52.982;6.658;2023-08-17T13:15:52;20.50;99.90
58865;DHT22;45702;52.982;6.658;2023-08-17T13:18:18;20.50;99.90
58865;DHT22;45702;52.982;6.658;2023-08-17T13:20:44;20.60;99.90
58865;DHT22;45702;52.982;6.658;2023-08-17T13:23:10;20.60;99.90
58865;DHT22;45702;52.982;6.658;2023-08-17T13:25:36;20.70;99.90
58865;DHT22;45702;52.982;6.658;2023-08-17T13:28:02;20.70;99.90
58865;DHT22;45702;52.982;6.658;2023-08-17T13:30:28;20.80;99.90
58865;DHT22;45702;52.982;6.658;2023-08-17T13:32:54;20.80;99.90
58865;DHT22;45702;52.982;6.658;2023-08-17T13:35:20;20.80;99.90
58865;DHT22;45702;52.982;6.658;2023-08-17T13:37:51;20.70;99.90
58865;DHT22;45702;52.982;6.658;2023-08-17T13:40:18;20.60;99.90
58865;DHT22;45702;52.982;6.658;2023-08-17T13:42:43;20.60;99.90
58865;DHT22;45702;52.982;6.658;2023-08-17T13:45:09;20.60;99.90
58865;DHT22;45702;52.982;6.658;2023-08-17T13:47:35;20.60;99.90
58865;DHT22;45702;52.982;6.658;2023-08-17T13:50:00;20.50;99.90
58865;DHT22;45702;52.982;6.658;2023-08-17T13:52:28;20.60;99.90
58865;DHT22;45702;52.982;6.658;2023-08-17T13:54:54;20.50;99.90
58865;DHT22;45702;52.982;6.658;2023-08-17T13:57:20;20.50;99.90
58865;DHT22;45702;52.982;6.658;2023-08-17T13:59:46;20.50;99.90
58865;DHT22;45702;52.982;6.658;2023-08-17T14:02:11;20.50;99.90
58865;DHT22;45702;52.982;6.658;2023-08-17T14:04:37;20.50;99.90
58865;DHT22;45702;52.982;6.658;2023-08-17T14:07:03;20.40;99.90
58865;DHT22;45702;52.982;6.658;2023-08-17T14:09:30;20.50;99.90
58865;DHT22;45702;52.982;6.658;2023-08-17T14:11:56;20.50;99.90
58865;DHT22;45702;52.982;6.658;2023-08-17T14:14:21;20.50;99.90
58865;DHT22;45702;52.982;6.658;2023-08-17T14:16:47;20.40;99.90
58865;DHT22;45702;52.982;6.658;2023-08-17T14:19:13;20.40;99.90
58865;DHT22;45702;52.982;6.658;2023-08-17T14:21:39;20.40;99.90
58865;DHT22;45702;52.982;6.658;2023-08-17T14:24:05;20.40;99.90
58865;DHT22;45702;52.982;6.658;2023-08-17T14:26:32;20.40;99.90
58865;DHT22;45702;52.982;6.658;2023-08-17T14:28:58;20.30;99.90
58865;DHT22;45702;52.982;6.658;2023-08-17T14:31:23;20.30;99.90
58865;DHT22;45702;52.982;6.658;2023-08-17T14:33:49;20.30;99.90
58865;DHT22;45702;52.982;6.658;2023-08-17T14:36:15;20.30;99.90
58865;DHT22;45702;52.982;6.658;2023-08-17T14:38:41;20.20;99.90
58865;DHT22;45702;52.982;6.658;2023-08-17T14:41:08;20.20;99.90
58865;DHT22;45702;52.982;6.658;2023-08-17T14:43:34;20.10;99.90
58865;DHT22;45702;52.982;6.658;2023-08-17T14:46:00;20.00;99.90
58865;DHT22;45702;52.982;6.658;2023-08-17T14:48:26;20.00;99.90
58865;DHT22;45702;52.982;6.658;2023-08-17T14:50:52;20.00;99.90
58865;DHT22;45702;52.982;6.658;2023-08-17T14:53:17;20.00;99.90
58865;DHT22;45702;52.982;6.658;2023-08-17T14:55:43;20.00;99.90
58865;DHT22;45702;52.982;6.658;2023-08-17T14:58:09;20.00;99.90
58865;DHT22;45702;52.982;6.658;2023-08-17T15:00:35;20.00;99.90
58865;DHT22;45702;52.982;6.658;2023-08-17T15:03:01;20.00;99.90
58865;DHT22;45702;52.982;6.658;2023-08-17T15:05:27;20.00;99.90
58865;DHT22;45702;52.982;6.658;2023-08-17T15:07:53;20.00;99.90
58865;DHT22;45702;52.982;6.658;2023-08-17T15:10:18;20.10;99.90
58865;DHT22;45702;52.982;6.658;2023-08-17T15:12:44;20.10;99.90
58865;DHT22;45702;52.982;6.658;2023-08-17T15:15:10;20.10;99.90
58865;DHT22;45702;52.982;6.658;2023-08-17T15:17:36;20.10;99.90
58865;DHT22;45702;52.982;6.658;2023-08-17T15:20:03;20.10;99.90
58865;DHT22;45702;52.982;6.658;2023-08-17T15:22:29;20.10;99.90
58865;DHT22;45702;52.982;6.658;2023-08-17T15:24:55;20.10;99.90
58865;DHT22;45702;52.982;6.658;2023-08-17T15:27:21;20.10;99.90
58865;DHT22;45702;52.982;6.658;2023-08-17T15:29:47;20.10;99.90
58865;DHT22;45702;52.982;6.658;2023-08-17T15:32:12;20.10;99.90
58865;DHT22;45702;52.982;6.658;2023-08-17T15:34:38;20.10;99.90
58865;DHT22;45702;52.982;6.658;2023-08-17T15:37:06;20.10;99.90
58865;DHT22;45702;52.982;6.658;2023-08-17T15:39:32;20.10;99.90
58865;DHT22;45702;52.982;6.658;2023-08-17T15:41:57;20.10;99.90